Time;durP1;ratioP1;P1;durP2;ratioP2;P2;SDS_P1;SDS_P2;PMS_P1;PMS_P2;Temp;Humidity;BMP_temperature;BMP_pressure;BME280_temperature;BME280_humidity;BME280_pressure;Samples;Min_cycle;Max_cycle;Signal;HPM_P1;HPM_P2
2022/12/02 00:01:22;;;;;;;51.90;27.55;;;6.90;99.90;;;;;;5059087;28;20470;-70
2022/12/02 00:03:48;;;;;;;50.65;27.33;;;6.90;99.90;;;;;;5059167;28;20037;-71
2022/12/02 00:06:31;;;;;;;52.33;27.42;;;6.80;99.90;;;;;;5059063;28;20316;-70
2022/12/02 00:09:28;;;;;;;53.80;26.95;;;6.80;99.90;;;;;;5059758;28;20037;-71
2022/12/02 00:11:54;;;;;;;57.05;28.08;;;6.80;99.90;;;;;;5059750;28;20029;-70
2022/12/02 00:14:33;;;;;;;48.63;26.33;;;6.70;99.90;;;;;;5058952;28;20025;-71
2022/12/02 00:16:59;;;;;;;52.40;26.67;;;6.80;99.90;;;;;;5059663;28;20116;-71
2022/12/02 00:19:25;;;;;;;49.63;27.23;;;6.80;99.90;;;;;;5058823;28;20060;-69
2022/12/02 00:21:51;;;;;;;48.60;26.35;;;6.80;99.90;;;;;;5042307;28;20094;-70
2022/12/02 00:24:18;;;;;;;56.15;27.77;;;6.80;99.90;;;;;;5058788;28;20041;-70
2022/12/02 00:26:44;;;;;;;52.85;27.38;;;6.90;99.90;;;;;;5058748;28;20450;-69
2022/12/02 00:29:10;;;;;;;56.65;27.65;;;6.90;99.90;;;;;;5058683;28;20037;-70
2022/12/02 00:31:36;;;;;;;51.95;27.20;;;6.90;99.90;;;;;;5041994;28;20139;-69
2022/12/02 00:34:03;;;;;;;48.00;26.30;;;6.90;99.90;;;;;;5058917;28;20379;-69
2022/12/02 00:36:29;;;;;;;51.33;27.08;;;6.90;99.90;;;;;;5041980;28;20063;-70
2022/12/02 00:38:56;;;;;;;46.97;26.45;;;6.80;99.90;;;;;;5042003;28;20041;-70
2022/12/02 00:41:22;;;;;;;52.75;26.98;;;6.90;99.90;;;;;;5041824;28;20033;-70
2022/12/02 00:46:35;;;;;;;48.47;26.40;;;6.90;99.90;;;;;;5058207;28;20045;-70
2022/12/02 00:49:10;;;;;;;52.70;26.38;;;6.90;99.90;;;;;;5058255;28;20041;-70
2022/12/02 00:51:37;;;;;;;51.95;26.90;;;7.00;99.90;;;;;;5058329;28;20082;-71
2022/12/02 00:54:04;;;;;;;52.03;27.38;;;7.00;99.90;;;;;;5041508;28;20091;-70
2022/12/02 00:56:31;;;;;;;48.92;27.27;;;7.00;99.90;;;;;;5041860;28;20052;-70
2022/12/02 00:58:57;;;;;;;48.03;26.35;;;7.00;99.90;;;;;;5058194;28;20032;-70
2022/12/02 01:01:23;;;;;;;54.83;28.70;;;6.90;99.90;;;;;;5058162;28;20056;-71
2022/12/02 01:03:49;;;;;;;51.70;26.85;;;6.90;99.90;;;;;;5058781;28;20032;-69
2022/12/02 01:06:17;;;;;;;56.78;28.70;;;6.90;99.90;;;;;;5057751;28;20044;-69
2022/12/02 01:08:43;;;;;;;49.25;27.67;;;6.90;99.90;;;;;;5041308;28;20297;-70
2022/12/02 01:11:09;;;;;;;53.20;26.90;;;6.90;99.90;;;;;;5058580;28;20023;-71
2022/12/02 01:13:36;;;;;;;51.90;27.17;;;7.00;99.90;;;;;;5058557;28;20060;-70
2022/12/02 01:16:02;;;;;;;53.67;27.95;;;7.10;99.90;;;;;;5058819;28;20025;-70
2022/12/02 01:18:28;;;;;;;55.60;27.92;;;7.00;99.90;;;;;;5058619;28;20047;-70
2022/12/02 01:20:54;;;;;;;52.83;27.48;;;7.00;99.90;;;;;;5057777;28;20108;-70
2022/12/02 01:23:20;;;;;;;54.78;27.27;;;7.00;99.90;;;;;;5058383;28;20035;-70
2022/12/02 01:25:47;;;;;;;56.47;27.52;;;7.00;99.90;;;;;;5058372;28;20108;-70
2022/12/02 01:28:14;;;;;;;54.95;27.58;;;7.00;99.90;;;;;;5040952;28;20029;-70
2022/12/02 01:30:39;;;;;;;57.15;27.92;;;7.00;99.90;;;;;;5057459;28;20103;-70
2022/12/02 01:33:06;;;;;;;55.83;28.02;;;7.00;99.90;;;;;;5057532;28;20025;-69
2022/12/02 01:35:32;;;;;;;52.92;27.02;;;7.00;99.90;;;;;;5058138;28;20020;-71
2022/12/02 01:37:57;;;;;;;54.13;27.55;;;7.00;99.90;;;;;;5057369;28;20419;-70
2022/12/02 01:40:24;;;;;;;51.95;26.75;;;7.00;99.90;;;;;;5058093;28;20041;-70
2022/12/02 01:42:49;;;;;;;54.05;26.88;;;7.00;99.90;;;;;;5040588;28;20036;-70
2022/12/02 01:45:16;;;;;;;52.00;26.90;;;7.00;99.90;;;;;;5057345;28;20523;-70
2022/12/02 01:47:42;;;;;;;51.88;26.92;;;7.00;99.90;;;;;;5057381;28;20040;-70
2022/12/02 01:50:11;;;;;;;52.65;26.73;;;7.00;99.90;;;;;;5057107;28;20029;-70
2022/12/02 01:52:37;;;;;;;53.92;27.15;;;7.00;99.90;;;;;;5057075;28;20398;-70
2022/12/02 01:55:06;;;;;;;55.13;26.92;;;7.00;99.90;;;;;;5057169;28;20412;-69
2022/12/02 01:57:32;;;;;;;52.05;27.27;;;7.10;99.90;;;;;;5057674;28;20033;-70
2022/12/02 01:59:58;;;;;;;53.13;27.88;;;7.10;99.90;;;;;;5056988;28;20401;-70
2022/12/02 02:02:34;;;;;;;50.55;26.58;;;7.00;99.90;;;;;;5040448;28;20151;-70
2022/12/02 02:05:26;;;;;;;53.28;26.83;;;7.00;99.90;;;;;;5056733;28;20361;-70
2022/12/02 02:07:55;;;;;;;49.90;26.48;;;7.10;99.90;;;;;;5040395;28;20035;-71
2022/12/02 02:10:23;;;;;;;49.65;27.10;;;7.10;99.90;;;;;;5057498;28;20128;-70
2022/12/02 02:12:51;;;;;;;52.55;26.90;;;7.00;99.90;;;;;;5056764;28;20108;-70
2022/12/02 02:15:17;;;;;;;48.85;25.92;;;7.00;99.90;;;;;;5057547;28;20025;-70
2022/12/02 02:17:43;;;;;;;50.55;27.35;;;6.90;99.90;;;;;;5056655;28;20037;-72
2022/12/02 02:20:13;;;;;;;54.42;27.55;;;7.00;99.90;;;;;;5056658;28;20044;-70
2022/12/02 02:22:56;;;;;;;52.80;27.83;;;7.00;99.90;;;;;;5056955;28;20021;-70
2022/12/02 02:25:22;;;;;;;55.10;27.35;;;7.00;99.90;;;;;;5058168;28;20033;-71
2022/12/02 02:27:57;;;;;;;52.15;26.85;;;7.00;99.90;;;;;;5040149;28;20037;-70
2022/12/02 02:30:27;;;;;;;51.88;27.30;;;6.90;99.90;;;;;;5057486;28;20040;-70
2022/12/02 02:32:53;;;;;;;53.70;27.02;;;6.90;99.90;;;;;;5039742;28;20043;-70
2022/12/02 02:35:20;;;;;;;54.67;27.70;;;6.80;99.90;;;;;;5057159;28;20053;-70
2022/12/02 02:37:49;;;;;;;57.50;28.20;;;6.80;99.90;;;;;;5039906;28;20067;-69
2022/12/02 02:40:16;;;;;;;51.17;26.65;;;6.80;99.90;;;;;;5057107;28;20075;-69
2022/12/02 02:42:46;;;;;;;57.50;28.25;;;6.90;99.90;;;;;;5056319;28;20053;-69
2022/12/02 02:45:12;;;;;;;52.42;27.40;;;6.80;99.90;;;;;;5057121;28;20059;-70
2022/12/02 02:47:38;;;;;;;54.13;27.55;;;6.80;99.90;;;;;;5039636;28;20423;-69
2022/12/02 02:50:06;;;;;;;52.70;27.17;;;6.80;99.90;;;;;;5039704;28;20043;-69
2022/12/02 02:52:32;;;;;;;55.28;28.13;;;6.80;99.90;;;;;;5056937;28;20388;-69
2022/12/02 02:54:58;;;;;;;53.80;28.90;;;6.70;99.90;;;;;;5056582;28;20039;-69
2022/12/02 02:57:24;;;;;;;54.88;28.60;;;6.70;99.90;;;;;;5056094;28;20033;-69
2022/12/02 02:59:55;;;;;;;55.95;28.05;;;6.70;99.90;;;;;;5056825;28;20029;-69
2022/12/02 03:02:24;;;;;;;57.20;29.02;;;6.70;99.90;;;;;;5056025;28;20425;-69
2022/12/02 03:04:50;;;;;;;54.03;28.50;;;6.60;99.90;;;;;;5055877;28;20037;-70
2022/12/02 03:07:16;;;;;;;55.15;28.13;;;6.60;99.90;;;;;;5039501;28;20056;-69
2022/12/02 03:09:43;;;;;;;54.25;27.70;;;6.60;99.90;;;;;;5055768;28;20033;-70
2022/12/02 03:12:09;;;;;;;60.20;29.45;;;6.60;99.90;;;;;;5056408;28;20025;-69
2022/12/02 03:14:35;;;;;;;57.75;28.23;;;6.60;99.90;;;;;;5055834;28;20029;-69
2022/12/02 03:17:02;;;;;;;52.72;27.67;;;6.60;99.90;;;;;;5056982;28;20040;-69
2022/12/02 03:19:30;;;;;;;57.97;28.45;;;6.60;99.90;;;;;;5056691;28;20087;-69
2022/12/02 03:21:57;;;;;;;57.13;28.58;;;6.60;99.90;;;;;;5039233;28;20036;-69
2022/12/02 03:24:23;;;;;;;62.70;30.10;;;6.70;99.90;;;;;;5039418;28;20332;-69
2022/12/02 03:26:50;;;;;;;55.95;28.65;;;6.70;99.90;;;;;;5055774;28;20041;-69
2022/12/02 03:29:16;;;;;;;59.22;29.13;;;6.70;99.90;;;;;;5056359;28;20041;-69
2022/12/02 03:31:43;;;;;;;60.65;29.05;;;6.70;99.90;;;;;;5055688;28;20047;-69
2022/12/02 03:34:09;;;;;;;60.45;29.13;;;6.60;99.90;;;;;;5056405;28;20103;-69
2022/12/02 03:36:36;;;;;;;56.90;28.08;;;6.60;99.90;;;;;;5055763;28;20308;-69
2022/12/02 03:39:03;;;;;;;59.90;29.70;;;6.60;99.90;;;;;;5039163;28;20056;-69
2022/12/02 03:41:29;;;;;;;57.55;28.95;;;6.70;99.90;;;;;;5055599;28;20033;-70
2022/12/02 03:43:56;;;;;;;56.58;28.55;;;6.70;99.90;;;;;;5055638;28;20056;-69
2022/12/02 03:46:22;;;;;;;62.20;28.73;;;6.70;99.90;;;;;;5056348;28;20027;-69
2022/12/02 03:48:48;;;;;;;57.60;28.35;;;6.70;99.90;;;;;;5055452;28;20025;-69
2022/12/02 03:51:15;;;;;;;60.30;29.45;;;6.60;99.90;;;;;;5055491;28;20052;-69
2022/12/02 03:53:41;;;;;;;61.50;29.60;;;6.60;99.90;;;;;;5039239;28;20507;-70
2022/12/02 03:56:08;;;;;;;63.10;29.58;;;6.60;99.90;;;;;;5055573;28;20123;-69
2022/12/02 03:58:36;;;;;;;63.47;29.92;;;6.60;99.90;;;;;;5055357;28;20041;-69
2022/12/02 04:01:02;;;;;;;58.75;29.13;;;6.60;99.90;;;;;;5056222;28;20091;-69
2022/12/02 04:03:28;;;;;;;61.90;30.80;;;6.60;99.90;;;;;;5055763;28;20032;-69
2022/12/02 04:05:54;;;;;;;62.03;29.63;;;6.60;99.90;;;;;;5055570;28;20064;-69
2022/12/02 04:08:20;;;;;;;61.85;30.38;;;6.60;99.90;;;;;;5056251;28;20258;-69
2022/12/02 04:10:46;;;;;;;67.93;30.73;;;6.70;99.90;;;;;;5057907;28;20040;-68
2022/12/02 04:13:11;;;;;;;69.20;31.70;;;6.60;99.90;;;;;;5059692;28;20428;-69
2022/12/02 04:15:37;;;;;;;62.53;29.35;;;6.60;99.90;;;;;;5059769;28;20029;-69
2022/12/02 04:18:03;;;;;;;69.55;31.48;;;6.50;99.90;;;;;;5058859;28;20029;-69
2022/12/02 04:20:28;;;;;;;63.45;29.83;;;6.70;99.90;;;;;;5058945;28;20044;-69
2022/12/02 04:22:54;;;;;;;63.83;30.10;;;6.60;99.90;;;;;;5042182;28;20075;-69
2022/12/02 04:25:20;;;;;;;66.80;32.58;;;6.70;99.90;;;;;;5042077;28;20385;-69
2022/12/02 04:27:46;;;;;;;64.95;30.40;;;6.60;99.90;;;;;;5058764;28;20404;-69
2022/12/02 04:30:12;;;;;;;63.50;31.13;;;6.60;99.90;;;;;;5058519;28;20041;-69
2022/12/02 04:32:37;;;;;;;66.25;30.05;;;6.50;99.90;;;;;;5058599;28;20039;-69
2022/12/02 04:35:04;;;;;;;63.58;30.45;;;6.60;99.90;;;;;;5059251;28;20087;-69
2022/12/02 04:37:30;;;;;;;67.70;32.58;;;6.50;99.90;;;;;;5025488;28;20342;-68
2022/12/02 04:39:55;;;;;;;70.18;32.25;;;6.60;99.90;;;;;;5025514;28;20079;-69
2022/12/02 04:42:21;;;;;;;67.45;32.83;;;6.60;99.90;;;;;;5058408;28;20400;-69
2022/12/02 04:44:47;;;;;;;63.83;31.42;;;6.70;99.90;;;;;;5059066;28;20067;-69
2022/12/02 04:47:13;;;;;;;67.80;33.13;;;6.70;99.90;;;;;;5042193;28;20462;-69
2022/12/02 04:49:38;;;;;;;74.57;34.60;;;6.70;99.90;;;;;;5025310;28;20025;-69
2022/12/02 04:52:04;;;;;;;77.78;33.65;;;6.60;99.90;;;;;;5058160;28;20029;-69
2022/12/02 04:54:30;;;;;;;76.18;34.13;;;6.70;99.90;;;;;;5058208;28;20033;-69
2022/12/02 04:56:56;;;;;;;77.50;34.53;;;6.70;99.90;;;;;;5042153;28;20029;-70
2022/12/02 04:59:22;;;;;;;79.63;34.80;;;6.70;99.90;;;;;;5058861;28;20037;-69
2022/12/02 05:01:47;;;;;;;78.03;34.33;;;6.80;99.90;;;;;;5057985;28;20396;-69
2022/12/02 05:04:13;;;;;;;76.78;34.35;;;6.70;99.90;;;;;;5041598;28;20025;-69
2022/12/02 05:06:39;;;;;;;77.30;34.92;;;6.70;99.90;;;;;;5058490;28;20384;-68
2022/12/02 05:09:05;;;;;;;84.63;36.30;;;6.80;99.90;;;;;;5057749;28;20048;-68
2022/12/02 05:11:31;;;;;;;87.60;35.55;;;6.90;99.90;;;;;;5041438;28;20025;-68
2022/12/02 05:13:56;;;;;;;91.50;36.78;;;6.90;99.90;;;;;;5057692;28;20282;-68
2022/12/02 05:16:22;;;;;;;78.47;35.53;;;6.80;99.90;;;;;;5041263;28;20128;-69
2022/12/02 05:18:48;;;;;;;88.95;37.50;;;6.80;99.90;;;;;;5057561;28;20404;-70
2022/12/02 05:21:14;;;;;;;89.90;36.78;;;6.70;99.90;;;;;;5057824;28;20333;-69
2022/12/02 05:23:40;;;;;;;100.63;39.00;;;6.80;99.90;;;;;;5040937;28;20025;-69
2022/12/02 05:26:05;;;;;;;87.63;36.55;;;6.80;99.90;;;;;;5040920;28;20021;-69
2022/12/02 05:28:31;;;;;;;89.47;36.38;;;6.80;99.90;;;;;;5041007;28;20036;-69
2022/12/02 05:30:57;;;;;;;96.32;40.47;;;6.80;99.90;;;;;;5058143;28;20037;-68
2022/12/02 05:33:23;;;;;;;92.65;38.15;;;6.80;99.90;;;;;;5057348;28;20048;-67
2022/12/02 05:35:48;;;;;;;95.78;38.92;;;6.80;99.90;;;;;;5058714;28;20033;-69
2022/12/02 05:38:14;;;;;;;92.63;38.05;;;6.90;99.90;;;;;;5057999;28;20116;-69
2022/12/02 05:40:40;;;;;;;100.32;39.17;;;6.80;99.90;;;;;;5040635;28;20090;-69
2022/12/02 05:43:25;;;;;;;97.63;38.60;;;6.70;99.90;;;;;;5057318;28;20297;-69
2022/12/02 05:45:55;;;;;;;99.93;38.63;;;6.80;99.90;;;;;;5058012;28;20068;-69
2022/12/02 05:48:21;;;;;;;98.72;40.30;;;6.80;99.90;;;;;;5058281;28;20033;-69
2022/12/02 05:50:46;;;;;;;97.18;39.33;;;6.90;99.90;;;;;;5057081;28;20033;-69
2022/12/02 05:53:27;;;;;;;108.20;41.05;;;6.70;99.90;;;;;;5057112;28;20025;-69
2022/12/02 05:55:54;;;;;;;117.40;45.60;;;6.80;99.90;;;;;;5057768;28;20029;-68
2022/12/02 05:58:21;;;;;;;128.00;45.65;;;6.60;99.90;;;;;;5040499;28;20274;-69
2022/12/02 06:00:55;;;;;;;132.00;45.67;;;6.40;99.90;;;;;;5057681;28;20277;-69
2022/12/02 06:03:21;;;;;;;129.13;44.97;;;6.20;99.90;;;;;;5057160;28;20112;-69
2022/12/02 06:05:48;;;;;;;134.45;44.70;;;6.00;99.90;;;;;;5057450;28;20171;-69
2022/12/02 06:08:23;;;;;;;129.07;46.45;;;6.00;99.90;;;;;;5040200;28;20036;-69
2022/12/02 06:10:52;;;;;;;120.90;44.50;;;5.90;99.90;;;;;;5056553;28;20037;-68
2022/12/02 06:13:19;;;;;;;113.95;40.97;;;5.90;99.90;;;;;;5057359;28;20025;-69
2022/12/02 06:15:45;;;;;;;109.57;40.10;;;5.80;99.90;;;;;;5057217;28;20381;-69
2022/12/02 06:18:14;;;;;;;101.57;39.78;;;5.70;99.90;;;;;;5056713;28;20044;-69
2022/12/02 06:20:40;;;;;;;103.90;39.83;;;5.70;99.90;;;;;;5056673;28;20064;-68
2022/12/02 06:23:11;;;;;;;106.75;40.22;;;5.50;99.90;;;;;;5056589;28;20036;-68
2022/12/02 06:25:37;;;;;;;102.85;39.25;;;5.60;99.90;;;;;;5056522;28;20029;-69
2022/12/02 06:28:37;;;;;;;96.72;39.70;;;5.50;99.90;;;;;;5040012;28;20029;-70
2022/12/02 06:31:15;;;;;;;101.18;38.85;;;5.50;99.90;;;;;;5056375;28;20029;-70
2022/12/02 06:33:42;;;;;;;101.95;38.88;;;5.60;99.90;;;;;;5056012;28;20119;-70
2022/12/02 06:36:17;;;;;;;102.78;38.85;;;5.60;99.90;;;;;;5056410;28;20031;-69
2022/12/02 06:38:49;;;;;;;97.13;36.35;;;5.60;99.90;;;;;;5039642;28;20029;-69
2022/12/02 06:41:20;;;;;;;93.20;33.70;;;5.50;99.90;;;;;;5057485;28;20025;-70
2022/12/02 06:45:03;;;;;;;82.47;34.65;;;5.30;99.90;;;;;;5056375;28;20029;-70
2022/12/02 06:46:33;;;;;;;81.57;31.98;;;5.30;99.90;;;;;;5056541;28;20040;-70
2022/12/02 06:49:21;;;;;;;82.15;32.17;;;5.20;99.90;;;;;;5056618;28;20052;-70
2022/12/02 06:51:54;;;;;;;81.88;33.00;;;5.00;99.90;;;;;;5056454;28;20393;-69
2022/12/02 06:54:22;;;;;;;76.20;31.45;;;5.10;99.90;;;;;;5056123;28;20029;-70
2022/12/02 06:56:49;;;;;;;80.00;31.67;;;5.10;99.90;;;;;;5057357;28;20333;-70
2022/12/02 06:59:20;;;;;;;83.30;31.38;;;5.10;99.90;;;;;;5056036;28;20036;-70
2022/12/02 07:01:46;;;;;;;77.22;31.55;;;5.20;99.90;;;;;;5056761;28;20037;-69
2022/12/02 07:04:30;;;;;;;79.30;32.67;;;5.20;99.90;;;;;;5057019;28;20071;-70
2022/12/02 07:07:09;;;;;;;80.30;30.08;;;5.30;99.90;;;;;;5056503;28;20405;-69
2022/12/02 07:09:38;;;;;;;82.30;31.65;;;5.20;99.90;;;;;;5055906;28;20037;-70
2022/12/02 07:12:30;;;;;;;77.70;30.80;;;5.30;99.90;;;;;;5056106;28;20439;-70
2022/12/02 07:14:58;;;;;;;75.55;30.20;;;5.40;99.90;;;;;;5039104;28;20025;-70
2022/12/02 07:17:41;;;;;;;79.15;31.95;;;5.30;99.90;;;;;;5056967;28;20037;-70
2022/12/02 07:20:10;;;;;;;78.20;31.95;;;5.30;99.90;;;;;;5039075;28;20041;-70
2022/12/02 07:22:46;;;;;;;79.95;31.83;;;5.40;99.90;;;;;;5056549;28;20025;-70
2022/12/02 07:25:15;;;;;;;80.53;31.85;;;5.60;99.90;;;;;;5039209;28;20388;-70
2022/12/02 07:27:43;;;;;;;81.35;32.22;;;5.70;99.90;;;;;;5056486;28;20103;-69
2022/12/02 07:30:49;;;;;;;81.82;32.10;;;5.70;99.90;;;;;;5056614;28;20053;-66
2022/12/02 07:33:15;;;;;;;75.30;30.23;;;6.60;99.90;;;;;;5055583;28;20446;-69
2022/12/02 07:35:40;;;;;;;69.90;30.98;;;6.10;99.90;;;;;;5055656;28;20033;-70
2022/12/02 07:38:06;;;;;;;72.25;30.17;;;6.00;99.90;;;;;;5038944;28;20044;-70
2022/12/02 07:40:32;;;;;;;71.63;30.40;;;5.70;99.90;;;;;;5055546;28;20037;-70
2022/12/02 07:42:58;;;;;;;68.40;29.63;;;5.70;99.90;;;;;;5038876;28;20041;-70
2022/12/02 07:45:23;;;;;;;73.68;31.23;;;5.60;99.90;;;;;;5058315;28;20045;-71
2022/12/02 07:47:50;;;;;;;71.80;30.63;;;5.50;99.90;;;;;;5042791;28;20201;-71
2022/12/02 07:50:16;;;;;;;72.57;30.58;;;5.40;99.90;;;;;;5059332;28;20123;-72
2022/12/02 07:52:42;;;;;;;71.55;29.80;;;5.50;99.90;;;;;;5042520;28;20385;-72
2022/12/02 07:55:08;;;;;;;72.20;29.40;;;5.40;99.90;;;;;;5042592;28;20026;-70
2022/12/02 07:57:34;;;;;;;71.78;29.75;;;5.30;99.90;;;;;;5059278;28;20336;-71
2022/12/02 08:00:01;;;;;;;72.70;29.10;;;5.20;99.90;;;;;;5059830;28;20029;-71
2022/12/02 08:02:26;;;;;;;64.32;28.95;;;5.30;99.90;;;;;;5042804;28;20044;-70
2022/12/02 08:04:52;;;;;;;67.55;27.83;;;5.30;99.90;;;;;;5059557;28;20048;-71
2022/12/02 08:07:18;;;;;;;67.70;27.95;;;5.30;99.90;;;;;;5059021;28;20037;-71
2022/12/02 08:09:45;;;;;;;65.25;27.52;;;5.10;99.90;;;;;;5042488;28;20103;-71
2022/12/02 08:12:11;;;;;;;69.55;28.55;;;5.30;99.90;;;;;;5059465;28;20040;-72
2022/12/02 08:14:36;;;;;;;56.88;26.58;;;5.30;99.90;;;;;;5058698;28;20037;-71
2022/12/02 08:17:02;;;;;;;56.50;25.80;;;5.30;99.90;;;;;;5058982;28;20032;-71
2022/12/02 08:19:28;;;;;;;52.15;23.83;;;5.10;99.90;;;;;;5059898;28;20044;-72
2022/12/02 08:21:54;;;;;;;55.13;23.88;;;5.00;99.90;;;;;;5059839;28;20029;-71
2022/12/02 08:24:20;;;;;;;52.58;22.70;;;5.00;99.90;;;;;;5060341;28;20060;-72
2022/12/02 08:26:45;;;;;;;50.63;21.10;;;5.00;99.90;;;;;;5059818;28;20033;-72
2022/12/02 08:29:11;;;;;;;49.38;20.25;;;4.90;99.90;;;;;;5059396;28;20297;-72
2022/12/02 08:31:37;;;;;;;40.58;19.17;;;5.00;99.90;;;;;;5042256;28;20036;-72
2022/12/02 08:34:03;;;;;;;39.28;19.02;;;5.00;99.90;;;;;;5025891;28;20048;-71
2022/12/02 08:36:29;;;;;;;43.42;19.13;;;5.00;99.90;;;;;;5042317;28;20392;-70
2022/12/02 08:38:55;;;;;;;40.15;19.33;;;5.00;99.90;;;;;;5058687;28;20128;-70
2022/12/02 08:41:20;;;;;;;40.58;18.80;;;5.00;99.90;;;;;;5059668;28;20040;-71
2022/12/02 08:43:47;;;;;;;36.85;20.30;;;5.10;99.90;;;;;;5041877;28;20126;-70
2022/12/02 08:46:13;;;;;;;44.65;20.08;;;5.10;99.90;;;;;;5059341;28;20040;-70
2022/12/02 08:48:39;;;;;;;43.45;20.33;;;5.20;99.90;;;;;;5059303;28;20021;-70
2022/12/02 08:51:05;;;;;;;40.22;20.10;;;5.20;99.90;;;;;;5009227;28;20320;-70
2022/12/02 08:53:31;;;;;;;41.42;20.65;;;5.30;99.90;;;;;;5041814;28;20323;-71
2022/12/02 08:55:57;;;;;;;40.83;20.63;;;5.30;99.90;;;;;;5059142;28;20293;-71
2022/12/02 08:58:23;;;;;;;45.10;21.60;;;5.30;99.90;;;;;;5058726;28;20029;-70
2022/12/02 09:00:49;;;;;;;40.30;20.02;;;5.30;99.90;;;;;;5042430;28;20052;-72
2022/12/02 09:03:14;;;;;;;43.33;20.73;;;5.20;99.90;;;;;;5041603;28;20048;-72
2022/12/02 09:05:40;;;;;;;38.05;19.08;;;5.20;99.90;;;;;;5058215;28;20440;-71
2022/12/02 09:08:07;;;;;;;41.97;19.38;;;5.30;99.90;;;;;;5042225;28;20048;-72
2022/12/02 09:10:33;;;;;;;42.05;18.90;;;5.40;99.90;;;;;;5058453;28;20032;-72
2022/12/02 09:12:58;;;;;;;46.83;21.35;;;5.40;99.90;;;;;;5059079;28;20033;-71
2022/12/02 09:15:24;;;;;;;42.55;20.38;;;5.50;99.90;;;;;;5042104;28;20037;-71
2022/12/02 09:17:50;;;;;;;40.30;19.38;;;5.60;99.90;;;;;;5041806;28;20305;-71
2022/12/02 09:20:17;;;;;;;41.50;19.30;;;5.40;99.90;;;;;;5057432;28;20040;-70
2022/12/02 09:22:46;;;;;;;43.33;20.27;;;5.30;99.90;;;;;;5058018;28;20474;-71
2022/12/02 09:25:13;;;;;;;44.15;19.67;;;5.30;99.90;;;;;;5058049;28;20045;-70
2022/12/02 09:27:40;;;;;;;41.58;19.70;;;5.40;99.90;;;;;;5058568;28;20055;-70
2022/12/02 09:30:08;;;;;;;43.00;20.92;;;5.40;99.90;;;;;;5058457;28;20086;-71
2022/12/02 09:32:34;;;;;;;44.90;20.75;;;5.50;99.90;;;;;;5057483;28;20277;-71
2022/12/02 09:35:00;;;;;;;43.05;21.52;;;5.60;99.90;;;;;;5041059;28;20040;-70
2022/12/02 09:37:26;;;;;;;44.67;20.65;;;5.50;99.90;;;;;;5040950;28;20356;-71
2022/12/02 09:39:51;;;;;;;41.70;20.70;;;5.40;99.90;;;;;;5040876;28;20116;-72
2022/12/02 09:42:18;;;;;;;45.63;21.70;;;5.50;99.90;;;;;;5057256;28;20090;-72
2022/12/02 09:44:45;;;;;;;47.20;21.08;;;5.60;99.90;;;;;;5057629;28;20467;-71
2022/12/02 09:47:13;;;;;;;44.03;21.15;;;5.50;99.90;;;;;;5041178;28;20044;-71
2022/12/02 09:49:40;;;;;;;37.13;18.88;;;5.30;99.90;;;;;;5057189;28;20112;-71
2022/12/02 09:52:15;;;;;;;46.42;20.92;;;5.20;99.90;;;;;;5058238;28;20102;-71
2022/12/02 09:54:43;;;;;;;51.05;23.30;;;5.20;99.90;;;;;;5057436;28;20036;-70
2022/12/02 09:57:13;;;;;;;52.53;24.02;;;5.20;99.90;;;;;;5057924;28;20033;-69
2022/12/02 09:59:39;;;;;;;53.28;24.08;;;5.10;99.90;;;;;;5057810;28;20040;-69
2022/12/02 10:02:11;;;;;;;50.85;23.63;;;5.30;99.90;;;;;;5057672;28;20095;-69
2022/12/02 10:04:37;;;;;;;50.67;22.27;;;5.30;99.90;;;;;;5057661;28;20067;-70
2022/12/02 10:07:02;;;;;;;50.28;22.65;;;5.30;99.90;;;;;;5057174;28;20064;-70
2022/12/02 10:09:30;;;;;;;47.90;22.27;;;5.40;99.90;;;;;;5056924;28;20420;-70
2022/12/02 10:11:56;;;;;;;43.67;19.75;;;5.40;99.90;;;;;;5057483;28;20044;-70
2022/12/02 10:14:22;;;;;;;37.78;18.45;;;5.40;99.90;;;;;;5057544;28;20029;-70
2022/12/02 10:16:49;;;;;;;41.22;18.40;;;5.50;99.90;;;;;;5056797;28;20032;-71
2022/12/02 10:19:17;;;;;;;32.40;16.30;;;5.50;99.90;;;;;;5057607;28;20422;-70
2022/12/02 10:21:43;;;;;;;35.13;16.30;;;5.40;99.90;;;;;;5057850;28;20021;-69
2022/12/02 10:24:11;;;;;;;38.05;16.77;;;5.50;99.90;;;;;;5057229;28;20033;-69
2022/12/02 10:26:51;;;;;;;34.67;15.98;;;5.30;99.90;;;;;;5057812;28;20025;-70
2022/12/02 10:29:28;;;;;;;34.78;16.40;;;5.30;99.90;;;;;;5056896;28;20048;-70
2022/12/02 10:32:06;;;;;;;36.88;16.90;;;5.40;99.90;;;;;;5057326;28;20412;-70
2022/12/02 10:34:34;;;;;;;32.40;16.05;;;5.60;99.90;;;;;;5057787;28;20082;-69
2022/12/02 10:37:23;;;;;;;33.47;15.88;;;5.60;99.90;;;;;;5057337;28;20412;-70
2022/12/02 10:40:07;;;;;;;32.78;16.13;;;5.50;99.90;;;;;;5039910;28;20029;-69
2022/12/02 10:42:34;;;;;;;34.22;16.42;;;5.60;99.90;;;;;;5056421;28;20094;-70
2022/12/02 10:45:14;;;;;;;36.55;16.73;;;5.60;99.90;;;;;;5056477;28;20056;-70
2022/12/02 10:47:40;;;;;;;32.45;14.77;;;5.50;99.90;;;;;;5056507;28;20037;-70
2022/12/02 10:50:21;;;;;;;32.25;15.27;;;5.50;99.90;;;;;;5056304;28;20037;-70
2022/12/02 10:52:54;;;;;;;30.55;15.10;;;5.50;99.90;;;;;;5056012;28;20032;-70
2022/12/02 10:55:21;;;;;;;33.47;16.58;;;5.70;99.90;;;;;;5056797;28;20105;-70
2022/12/02 10:57:47;;;;;;;31.88;14.90;;;5.70;99.90;;;;;;5056656;28;20037;-70
2022/12/02 11:00:22;;;;;;;33.72;15.93;;;5.90;99.90;;;;;;5056706;28;20029;-70
2022/12/02 11:02:54;;;;;;;33.75;16.15;;;6.00;99.90;;;;;;5056945;28;20089;-70
2022/12/02 11:05:30;;;;;;;36.70;16.73;;;6.10;99.90;;;;;;5056185;28;20041;-69
2022/12/02 11:08:06;;;;;;;30.10;15.27;;;5.90;99.90;;;;;;5057288;28;20036;-72
2022/12/02 11:10:39;;;;;;;30.63;14.52;;;5.90;99.90;;;;;;5057353;28;20142;-70
2022/12/02 11:13:11;;;;;;;31.88;16.00;;;5.80;99.90;;;;;;5039533;28;20386;-70
2022/12/02 11:15:47;;;;;;;34.20;17.00;;;5.90;99.90;;;;;;5057102;28;20356;-71
2022/12/02 11:18:22;;;;;;;32.17;15.50;;;5.90;99.90;;;;;;5056705;28;20293;-72
2022/12/02 11:21:01;;;;;;;33.28;16.55;;;6.00;99.90;;;;;;5060820;28;20029;-69
2022/12/02 11:23:28;;;;;;;34.08;17.58;;;6.20;99.90;;;;;;5060041;28;20044;-71
2022/12/02 11:26:09;;;;;;;37.38;17.17;;;6.20;99.90;;;;;;5060076;28;20029;-71
2022/12/02 11:29:04;;;;;;;32.03;16.58;;;6.20;99.90;;;;;;5060056;28;20037;-69
2022/12/02 11:31:31;;;;;;;35.75;16.40;;;6.10;99.90;;;;;;5059824;28;20119;-70
2022/12/02 11:34:00;;;;;;;34.03;16.25;;;6.20;99.90;;;;;;5043427;28;20045;-70
2022/12/02 11:36:35;;;;;;;32.72;16.33;;;6.10;99.90;;;;;;5060191;28;20039;-71
2022/12/02 11:39:07;;;;;;;35.50;16.88;;;6.10;99.90;;;;;;5044240;28;20037;-69
2022/12/02 11:41:59;;;;;;;25.85;12.50;;;6.10;99.90;;;;;;5061442;28;20285;-71
2022/12/02 11:44:29;;;;;;;26.63;12.43;;;6.00;99.90;;;;;;5052786;28;20367;-70
2022/12/02 11:46:56;;;;;;;31.45;16.58;;;6.00;99.90;;;;;;5061426;28;20295;-70
2022/12/02 11:49:27;;;;;;;35.70;17.58;;;6.10;99.90;;;;;;5060261;28;20029;-71
2022/12/02 11:52:03;;;;;;;32.22;15.40;;;6.20;99.90;;;;;;5043351;28;20025;-70
2022/12/02 11:54:29;;;;;;;31.85;16.13;;;6.20;99.90;;;;;;5059922;28;20044;-69
2022/12/02 11:56:56;;;;;;;28.58;15.25;;;6.20;99.90;;;;;;5059946;28;20068;-72
2022/12/02 11:59:28;;;;;;;30.25;15.05;;;6.10;99.90;;;;;;5059313;28;20029;-70
2022/12/02 12:02:15;;;;;;;32.30;15.82;;;6.20;99.90;;;;;;5059242;28;20114;-70
2022/12/02 12:04:42;;;;;;;32.95;16.50;;;6.00;99.90;;;;;;5059230;28;20087;-72
2022/12/02 12:07:08;;;;;;;30.00;15.30;;;5.70;99.90;;;;;;5042621;28;20102;-70
2022/12/02 12:09:34;;;;;;;31.23;14.35;;;5.80;99.90;;;;;;5042868;28;20427;-71
2022/12/02 12:12:18;;;;;;;30.20;15.55;;;5.70;99.90;;;;;;5059152;28;20025;-70
2022/12/02 12:15:02;;;;;;;27.00;14.20;;;5.70;99.90;;;;;;5042431;28;20029;-71
2022/12/02 12:17:39;;;;;;;28.30;15.05;;;5.50;99.90;;;;;;5042658;28;20119;-70
2022/12/02 12:20:25;;;;;;;26.25;13.65;;;5.60;99.90;;;;;;5059823;28;20044;-70
2022/12/02 12:22:51;;;;;;;31.17;14.57;;;5.60;99.90;;;;;;5059082;28;20037;-71
2022/12/02 12:25:38;;;;;;;29.50;13.90;;;5.70;99.90;;;;;;5042277;28;20036;-69
2022/12/02 12:28:22;;;;;;;29.70;14.10;;;5.70;99.90;;;;;;5059566;28;20347;-71
2022/12/02 12:30:48;;;;;;;29.52;14.07;;;5.70;99.90;;;;;;5058876;28;20044;-70
2022/12/02 12:33:14;;;;;;;26.50;13.77;;;5.60;99.90;;;;;;5042220;28;20021;-71
2022/12/02 12:35:39;;;;;;;34.20;14.20;;;5.50;99.90;;;;;;5042263;28;20037;-70
2022/12/02 12:38:05;;;;;;;28.27;13.50;;;5.50;99.90;;;;;;5042184;28;20033;-71
2022/12/02 12:40:31;;;;;;;30.60;14.10;;;5.60;99.90;;;;;;5059285;28;20037;-71
2022/12/02 12:42:56;;;;;;;28.13;14.20;;;5.60;99.90;;;;;;5059053;28;20357;-71
2022/12/02 12:45:22;;;;;;;29.45;14.38;;;5.50;99.90;;;;;;5058633;28;20118;-71
2022/12/02 12:47:48;;;;;;;30.05;14.55;;;5.60;99.90;;;;;;5058849;28;20029;-71